sensor_id;sensor_type;location;lat;lon;timestamp;pressure;altitude;pressure_sealevel;temperature;humidity
8318;BME280;4196;48.926;8.964;2023-02-04T00:00:46;100344.44;;;6.74;100.00
8318;BME280;4196;48.926;8.964;2023-02-04T00:03:34;100335.78;;;6.72;100.00
8318;BME280;4196;48.926;8.964;2023-02-04T00:06:20;100347.72;;;6.70;100.00
8318;BME280;4196;48.926;8.964;2023-02-04T00:09:07;100324.25;;;6.61;100.00
8318;BME280;4196;48.926;8.964;2023-02-04T00:11:53;100331.47;;;6.71;100.00
8318;BME280;4196;48.926;8.964;2023-02-04T00:14:39;100306.53;;;6.70;100.00
8318;BME280;4196;48.926;8.964;2023-02-04T00:17:26;100323.00;;;6.75;100.00
8318;BME280;4196;48.926;8.964;2023-02-04T00:20:12;100331.41;;;6.69;100.00
8318;BME280;4196;48.926;8.964;2023-02-04T00:22:59;100342.03;;;6.54;100.00
8318;BME280;4196;48.926;8.964;2023-02-04T00:25:46;100368.28;;;6.70;100.00
8318;BME280;4196;48.926;8.964;2023-02-04T00:28:32;100367.53;;;6.72;100.00
8318;BME280;4196;48.926;8.964;2023-02-04T00:31:18;100335.56;;;6.66;100.00
8318;BME280;4196;48.926;8.964;2023-02-04T00:34:05;100340.31;;;6.53;100.00
8318;BME280;4196;48.926;8.964;2023-02-04T00:36:51;100354.31;;;6.62;100.00
8318;BME280;4196;48.926;8.964;2023-02-04T00:39:38;100330.22;;;6.60;100.00
8318;BME280;4196;48.926;8.964;2023-02-04T00:42:24;100344.69;;;6.56;100.00
8318;BME280;4196;48.926;8.964;2023-02-04T00:45:11;100336.78;;;6.51;100.00
8318;BME280;4196;48.926;8.964;2023-02-04T00:47:57;100354.31;;;6.62;100.00
8318;BME280;4196;48.926;8.964;2023-02-04T00:50:44;100359.56;;;6.65;100.00
8318;BME280;4196;48.926;8.964;2023-02-04T00:53:31;100349.63;;;6.50;100.00
8318;BME280;4196;48.926;8.964;2023-02-04T00:56:17;100370.56;;;6.61;100.00
8318;BME280;4196;48.926;8.964;2023-02-04T00:59:04;100362.81;;;6.59;100.00
8318;BME280;4196;48.926;8.964;2023-02-04T01:01:50;100370.34;;;6.54;100.00
8318;BME280;4196;48.926;8.964;2023-02-04T01:04:37;100381.47;;;6.53;100.00
8318;BME280;4196;48.926;8.964;2023-02-04T01:07:23;100300.16;;;6.08;100.00
8318;BME280;4196;48.926;8.964;2023-02-04T01:10:11;100333.13;;;6.19;100.00
8318;BME280;4196;48.926;8.964;2023-02-04T01:12:57;100346.38;;;6.30;100.00
8318;BME280;4196;48.926;8.964;2023-02-04T01:15:45;100370.91;;;6.46;100.00
8318;BME280;4196;48.926;8.964;2023-02-04T01:18:33;100376.53;;;6.34;100.00
8318;BME280;4196;48.926;8.964;2023-02-04T01:21:19;100382.31;;;6.52;100.00
8318;BME280;4196;48.926;8.964;2023-02-04T01:24:05;100365.50;;;6.38;100.00
8318;BME280;4196;48.926;8.964;2023-02-04T01:27:12;100394.34;;;6.53;100.00
8318;BME280;4196;48.926;8.964;2023-02-04T01:29:58;100383.91;;;6.49;100.00
8318;BME280;4196;48.926;8.964;2023-02-04T01:32:45;100392.41;;;6.48;100.00
8318;BME280;4196;48.926;8.964;2023-02-04T01:35:32;100375.81;;;6.38;100.00
8318;BME280;4196;48.926;8.964;2023-02-04T01:38:18;100383.75;;;6.44;100.00
8318;BME280;4196;48.926;8.964;2023-02-04T01:41:05;100382.38;;;6.30;100.00
8318;BME280;4196;48.926;8.964;2023-02-04T01:43:51;100386.22;;;6.41;100.00
8318;BME280;4196;48.926;8.964;2023-02-04T01:46:38;100389.38;;;6.34;100.00
8318;BME280;4196;48.926;8.964;2023-02-04T01:49:25;100389.91;;;6.25;100.00
8318;BME280;4196;48.926;8.964;2023-02-04T01:52:11;100411.81;;;6.38;100.00
8318;BME280;4196;48.926;8.964;2023-02-04T01:54:58;100415.81;;;6.30;100.00
8318;BME280;4196;48.926;8.964;2023-02-04T01:57:44;100408.84;;;6.27;100.00
8318;BME280;4196;48.926;8.964;2023-02-04T02:00:31;100421.66;;;6.26;100.00
8318;BME280;4196;48.926;8.964;2023-02-04T02:03:19;100338.47;;;5.79;100.00
8318;BME280;4196;48.926;8.964;2023-02-04T02:06:06;100406.72;;;6.16;100.00
8318;BME280;4196;48.926;8.964;2023-02-04T02:08:54;100403.47;;;5.97;100.00
8318;BME280;4196;48.926;8.964;2023-02-04T02:11:41;100396.53;;;5.96;100.00
8318;BME280;4196;48.926;8.964;2023-02-04T02:14:28;100364.34;;;5.84;100.00
8318;BME280;4196;48.926;8.964;2023-02-04T02:17:15;100402.63;;;5.98;100.00
8318;BME280;4196;48.926;8.964;2023-02-04T02:20:02;100417.44;;;6.04;100.00
8318;BME280;4196;48.926;8.964;2023-02-04T02:25:55;100401.44;;;5.90;100.00
8318;BME280;4196;48.926;8.964;2023-02-04T02:28:42;100410.75;;;5.87;100.00
8318;BME280;4196;48.926;8.964;2023-02-04T02:31:30;100372.13;;;5.63;100.00
8318;BME280;4196;48.926;8.964;2023-02-04T02:34:17;100431.47;;;5.91;100.00
8318;BME280;4196;48.926;8.964;2023-02-04T02:37:04;100423.41;;;5.82;100.00
8318;BME280;4196;48.926;8.964;2023-02-04T02:39:51;100443.97;;;5.82;100.00
8318;BME280;4196;48.926;8.964;2023-02-04T02:42:38;100433.16;;;5.68;100.00
8318;BME280;4196;48.926;8.964;2023-02-04T02:45:27;100435.19;;;5.77;100.00
8318;BME280;4196;48.926;8.964;2023-02-04T02:48:14;100420.19;;;5.65;100.00
8318;BME280;4196;48.926;8.964;2023-02-04T02:51:00;100420.22;;;5.67;100.00
8318;BME280;4196;48.926;8.964;2023-02-04T02:53:49;100437.84;;;5.78;100.00
8318;BME280;4196;48.926;8.964;2023-02-04T02:56:35;100410.94;;;5.70;100.00
8318;BME280;4196;48.926;8.964;2023-02-04T02:59:22;100437.84;;;5.78;100.00
8318;BME280;4196;48.926;8.964;2023-02-04T03:02:10;100426.63;;;5.76;100.00
8318;BME280;4196;48.926;8.964;2023-02-04T03:04:59;100408.91;;;5.62;100.00
8318;BME280;4196;48.926;8.964;2023-02-04T03:07:48;100433.00;;;5.64;100.00
8318;BME280;4196;48.926;8.964;2023-02-04T03:10:35;100441.38;;;5.60;100.00
8318;BME280;4196;48.926;8.964;2023-02-04T03:13:22;100424.91;;;5.33;100.00
8318;BME280;4196;48.926;8.964;2023-02-04T03:16:09;100451.16;;;5.47;100.00
8318;BME280;4196;48.926;8.964;2023-02-04T03:18:55;100463.31;;;5.51;100.00
8318;BME280;4196;48.926;8.964;2023-02-04T03:21:42;100467.88;;;5.58;100.00
8318;BME280;4196;48.926;8.964;2023-02-04T03:24:28;100485.50;;;5.49;100.00
8318;BME280;4196;48.926;8.964;2023-02-04T03:27:16;100496.00;;;5.55;100.00
8318;BME280;4196;48.926;8.964;2023-02-04T03:30:02;100495.25;;;5.37;100.00
8318;BME280;4196;48.926;8.964;2023-02-04T03:32:49;100489.94;;;5.53;100.00
8318;BME280;4196;48.926;8.964;2023-02-04T03:35:36;100504.94;;;5.64;100.00
8318;BME280;4196;48.926;8.964;2023-02-04T03:38:22;100484.13;;;5.57;100.00
8318;BME280;4196;48.926;8.964;2023-02-04T03:41:08;100484.81;;;5.53;100.00
8318;BME280;4196;48.926;8.964;2023-02-04T03:43:55;100496.84;;;5.54;100.00
8318;BME280;4196;48.926;8.964;2023-02-04T03:46:41;100499.28;;;5.51;100.00
8318;BME280;4196;48.926;8.964;2023-02-04T03:49:27;100525.66;;;5.68;100.00
8318;BME280;4196;48.926;8.964;2023-02-04T03:52:14;100520.91;;;5.56;100.00
8318;BME280;4196;48.926;8.964;2023-02-04T03:55:00;100507.53;;;5.44;100.00
8318;BME280;4196;48.926;8.964;2023-02-04T03:57:46;100503.78;;;5.36;100.00
8318;BME280;4196;48.926;8.964;2023-02-04T04:00:33;100507.81;;;5.50;100.00
8318;BME280;4196;48.926;8.964;2023-02-04T04:03:19;100534.38;;;5.72;100.00
8318;BME280;4196;48.926;8.964;2023-02-04T04:06:05;100529.63;;;5.60;100.00
8318;BME280;4196;48.926;8.964;2023-02-04T04:08:55;100499.78;;;5.43;100.00
8318;BME280;4196;48.926;8.964;2023-02-04T04:11:42;100524.59;;;5.42;100.00
8318;BME280;4196;48.926;8.964;2023-02-04T04:14:28;100509.97;;;5.41;100.00
8318;BME280;4196;48.926;8.964;2023-02-04T04:17:14;100533.84;;;5.60;100.00
8318;BME280;4196;48.926;8.964;2023-02-04T04:20:01;100488.13;;;5.30;100.00
8318;BME280;4196;48.926;8.964;2023-02-04T04:22:47;100552.81;;;5.62;100.00
8318;BME280;4196;48.926;8.964;2023-02-04T04:25:33;100550.84;;;5.77;100.00
8318;BME280;4196;48.926;8.964;2023-02-04T04:28:20;100508.94;;;5.57;100.00
8318;BME280;4196;48.926;8.964;2023-02-04T04:31:06;100547.16;;;5.70;100.00
8318;BME280;4196;48.926;8.964;2023-02-04T04:33:53;100478.63;;;5.27;100.00
8318;BME280;4196;48.926;8.964;2023-02-04T04:36:39;100551.78;;;5.58;100.00
8318;BME280;4196;48.926;8.964;2023-02-04T04:39:26;100534.38;;;5.51;100.00
8318;BME280;4196;48.926;8.964;2023-02-04T04:42:12;100546.41;;;5.52;100.00
8318;BME280;4196;48.926;8.964;2023-02-04T04:44:58;100504.78;;;5.40;100.00
8318;BME280;4196;48.926;8.964;2023-02-04T04:47:44;100554.53;;;5.63;100.00
8318;BME280;4196;48.926;8.964;2023-02-04T04:50:31;100558.00;;;5.63;100.00
8318;BME280;4196;48.926;8.964;2023-02-04T04:53:18;100531.47;;;5.43;100.00
8318;BME280;4196;48.926;8.964;2023-02-04T04:56:04;100550.72;;;5.32;100.00
8318;BME280;4196;48.926;8.964;2023-02-04T04:58:51;100567.72;;;5.49;100.00
8318;BME280;4196;48.926;8.964;2023-02-04T05:01:37;100551.06;;;5.41;100.00
8318;BME280;4196;48.926;8.964;2023-02-04T05:04:24;100571.91;;;5.47;100.00
8318;BME280;4196;48.926;8.964;2023-02-04T05:07:10;100572.59;;;5.43;100.00
8318;BME280;4196;48.926;8.964;2023-02-04T05:09:57;100581.69;;;5.56;100.00
8318;BME280;4196;48.926;8.964;2023-02-04T05:12:43;100569.59;;;5.53;100.00
8318;BME280;4196;48.926;8.964;2023-02-04T05:15:29;100550.97;;;5.38;100.00
8318;BME280;4196;48.926;8.964;2023-02-04T05:18:15;100583.44;;;5.57;100.00
8318;BME280;4196;48.926;8.964;2023-02-04T05:21:02;100566.06;;;5.51;100.00
8318;BME280;4196;48.926;8.964;2023-02-04T05:23:49;100581.25;;;5.45;100.00
8318;BME280;4196;48.926;8.964;2023-02-04T05:26:35;100591.25;;;5.39;100.00
8318;BME280;4196;48.926;8.964;2023-02-04T05:29:22;100569.75;;;5.37;100.00
8318;BME280;4196;48.926;8.964;2023-02-04T05:32:08;100571.44;;;5.37;100.00
8318;BME280;4196;48.926;8.964;2023-02-04T05:34:54;100573.41;;;5.42;100.00
8318;BME280;4196;48.926;8.964;2023-02-04T05:37:41;100582.84;;;5.43;100.00
8318;BME280;4196;48.926;8.964;2023-02-04T05:40:27;100581.13;;;5.42;100.00
8318;BME280;4196;48.926;8.964;2023-02-04T05:43:14;100584.06;;;5.51;100.00
8318;BME280;4196;48.926;8.964;2023-02-04T05:46:01;100596.22;;;5.55;100.00
8318;BME280;4196;48.926;8.964;2023-02-04T05:48:47;100596.25;;;5.36;100.00
8318;BME280;4196;48.926;8.964;2023-02-04T05:51:34;100596.66;;;5.45;100.00
8318;BME280;4196;48.926;8.964;2023-02-04T05:54:20;100587.72;;;5.37;100.00
8318;BME280;4196;48.926;8.964;2023-02-04T05:57:06;100568.31;;;5.23;100.00
8318;BME280;4196;48.926;8.964;2023-02-04T05:59:53;100612.81;;;5.43;100.00
8318;BME280;4196;48.926;8.964;2023-02-04T06:02:39;100592.22;;;5.22;100.00
8318;BME280;4196;48.926;8.964;2023-02-04T06:05:25;100590.31;;;5.18;100.00
8318;BME280;4196;48.926;8.964;2023-02-04T06:08:12;100612.13;;;5.08;100.00
8318;BME280;4196;48.926;8.964;2023-02-04T06:11:01;100631.88;;;5.09;100.00
8318;BME280;4196;48.926;8.964;2023-02-04T06:13:47;100627.63;;;5.09;100.00
8318;BME280;4196;48.926;8.964;2023-02-04T06:16:34;100617.22;;;5.06;100.00
8318;BME280;4196;48.926;8.964;2023-02-04T06:19:20;100634.50;;;5.11;100.00
8318;BME280;4196;48.926;8.964;2023-02-04T06:22:07;100642.56;;;5.18;100.00
8318;BME280;4196;48.926;8.964;2023-02-04T06:24:53;100649.66;;;5.04;100.00
8318;BME280;4196;48.926;8.964;2023-02-04T06:27:39;100648.22;;;4.92;100.00
8318;BME280;4196;48.926;8.964;2023-02-04T06:30:26;100656.53;;;4.86;100.00
8318;BME280;4196;48.926;8.964;2023-02-04T06:33:12;100650.44;;;4.84;100.00
8318;BME280;4196;48.926;8.964;2023-02-04T06:35:58;100635.72;;;4.80;100.00
8318;BME280;4196;48.926;8.964;2023-02-04T06:38:45;100664.78;;;4.98;100.00
8318;BME280;4196;48.926;8.964;2023-02-04T06:41:31;100655.25;;;4.96;100.00
8318;BME280;4196;48.926;8.964;2023-02-04T06:44:18;100675.59;;;5.11;100.00
8318;BME280;4196;48.926;8.964;2023-02-04T06:47:04;100672.97;;;5.09;100.00
8318;BME280;4196;48.926;8.964;2023-02-04T06:49:50;100682.41;;;5.10;100.00
8318;BME280;4196;48.926;8.964;2023-02-04T06:52:37;100659.50;;;4.95;100.00
8318;BME280;4196;48.926;8.964;2023-02-04T06:55:23;100654.88;;;4.88;100.00
8318;BME280;4196;48.926;8.964;2023-02-04T06:58:09;100686.88;;;5.14;100.00
8318;BME280;4196;48.926;8.964;2023-02-04T07:00:55;100669.22;;;5.02;100.00
8318;BME280;4196;48.926;8.964;2023-02-04T07:03:42;100674.44;;;5.04;100.00
8318;BME280;4196;48.926;8.964;2023-02-04T07:06:28;100671.94;;;5.05;100.00
8318;BME280;4196;48.926;8.964;2023-02-04T07:09:15;100692.50;;;5.25;100.00
8318;BME280;4196;48.926;8.964;2023-02-04T07:12:02;100675.44;;;5.07;100.00
8318;BME280;4196;48.926;8.964;2023-02-04T07:14:48;100722.38;;;5.23;100.00
8318;BME280;4196;48.926;8.964;2023-02-04T07:17:35;100728.09;;;5.17;100.00
8318;BME280;4196;48.926;8.964;2023-02-04T07:20:21;100687.50;;;5.08;100.00
8318;BME280;4196;48.926;8.964;2023-02-04T07:23:08;100663.81;;;4.96;100.00
8318;BME280;4196;48.926;8.964;2023-02-04T07:25:54;100725.56;;;5.37;100.00
8318;BME280;4196;48.926;8.964;2023-02-04T07:28:44;100705.31;;;5.05;100.00
8318;BME280;4196;48.926;8.964;2023-02-04T07:31:30;100702.75;;;5.05;100.00
8318;BME280;4196;48.926;8.964;2023-02-04T07:34:17;100717.88;;;5.19;100.00
8318;BME280;4196;48.926;8.964;2023-02-04T07:37:04;100729.31;;;5.25;100.00
8318;BME280;4196;48.926;8.964;2023-02-04T07:39:50;100714.47;;;5.00;100.00
8318;BME280;4196;48.926;8.964;2023-02-04T07:42:36;100729.72;;;5.15;100.00
8318;BME280;4196;48.926;8.964;2023-02-04T07:45:29;100710.19;;;5.19;100.00
8318;BME280;4196;48.926;8.964;2023-02-04T07:48:15;100734.13;;;5.18;100.00
8318;BME280;4196;48.926;8.964;2023-02-04T07:51:02;100724.00;;;5.21;100.00
8318;BME280;4196;48.926;8.964;2023-02-04T07:53:48;100756.56;;;5.41;100.00
8318;BME280;4196;48.926;8.964;2023-02-04T07:56:34;100724.13;;;5.24;100.00
8318;BME280;4196;48.926;8.964;2023-02-04T07:59:21;100751.09;;;5.33;100.00
8318;BME280;4196;48.926;8.964;2023-02-04T08:02:08;100772.81;;;5.40;100.00
8318;BME280;4196;48.926;8.964;2023-02-04T08:04:55;100771.06;;;5.39;100.00
8318;BME280;4196;48.926;8.964;2023-02-04T08:07:41;100746.19;;;5.57;100.00
8318;BME280;4196;48.926;8.964;2023-02-04T08:10:27;100758.38;;;5.62;100.00
8318;BME280;4196;48.926;8.964;2023-02-04T08:13:14;100717.97;;;5.59;100.00
8318;BME280;4196;48.926;8.964;2023-02-04T08:16:00;100749.38;;;5.71;100.00
8318;BME280;4196;48.926;8.964;2023-02-04T08:18:46;100758.78;;;5.71;100.00
8318;BME280;4196;48.926;8.964;2023-02-04T08:21:33;100744.84;;;5.66;100.00
8318;BME280;4196;48.926;8.964;2023-02-04T08:24:19;100794.75;;;5.90;100.00
8318;BME280;4196;48.926;8.964;2023-02-04T08:27:06;100750.59;;;5.60;100.00
8318;BME280;4196;48.926;8.964;2023-02-04T08:29:52;100752.16;;;5.56;100.00
8318;BME280;4196;48.926;8.964;2023-02-04T08:32:40;100775.75;;;5.87;100.00
8318;BME280;4196;48.926;8.964;2023-02-04T08:35:26;100782.31;;;5.99;100.00
8318;BME280;4196;48.926;8.964;2023-02-04T08:38:12;100761.91;;;6.02;100.00
8318;BME280;4196;48.926;8.964;2023-02-04T08:40:59;100793.41;;;6.18;100.00
8318;BME280;4196;48.926;8.964;2023-02-04T08:43:45;100783.66;;;5.91;100.00
8318;BME280;4196;48.926;8.964;2023-02-04T08:46:32;100803.56;;;5.95;100.00
8318;BME280;4196;48.926;8.964;2023-02-04T08:49:18;100812.34;;;5.81;100.00
8318;BME280;4196;48.926;8.964;2023-02-04T08:52:05;100822.06;;;5.69;100.00
8318;BME280;4196;48.926;8.964;2023-02-04T08:54:53;100822.25;;;5.54;100.00
8318;BME280;4196;48.926;8.964;2023-02-04T08:57:39;100792.94;;;5.31;100.00
8318;BME280;4196;48.926;8.964;2023-02-04T09:00:26;100831.00;;;5.57;100.00
8318;BME280;4196;48.926;8.964;2023-02-04T09:03:13;100804.31;;;5.55;100.00
8318;BME280;4196;48.926;8.964;2023-02-04T09:05:59;100827.75;;;5.62;100.00
8318;BME280;4196;48.926;8.964;2023-02-04T09:08:46;100822.91;;;5.68;100.00
8318;BME280;4196;48.926;8.964;2023-02-04T09:11:32;100823.09;;;5.72;100.00
8318;BME280;4196;48.926;8.964;2023-02-04T09:14:19;100826.56;;;5.92;100.00
8318;BME280;4196;48.926;8.964;2023-02-04T09:17:05;100823.25;;;6.14;100.00
8318;BME280;4196;48.926;8.964;2023-02-04T09:19:52;100834.75;;;6.42;100.00
8318;BME280;4196;48.926;8.964;2023-02-04T09:22:38;100824.59;;;6.45;100.00
8318;BME280;4196;48.926;8.964;2023-02-04T09:25:25;100836.09;;;6.74;100.00
8318;BME280;4196;48.926;8.964;2023-02-04T09:28:12;100856.72;;;7.17;100.00
8318;BME280;4196;48.926;8.964;2023-02-04T09:30:59;100827.19;;;7.30;100.00
8318;BME280;4196;48.926;8.964;2023-02-04T09:33:49;100829.94;;;7.35;100.00
8318;BME280;4196;48.926;8.964;2023-02-04T09:36:35;100819.88;;;7.41;100.00
8318;BME280;4196;48.926;8.964;2023-02-04T09:39:23;100839.97;;;7.49;100.00
8318;BME280;4196;48.926;8.964;2023-02-04T09:42:12;100864.19;;;7.55;100.00
8318;BME280;4196;48.926;8.964;2023-02-04T09:45:00;100824.94;;;7.39;100.00
8318;BME280;4196;48.926;8.964;2023-02-04T09:47:49;100843.13;;;7.42;100.00
8318;BME280;4196;48.926;8.964;2023-02-04T09:50:36;100844.16;;;7.25;100.00
8318;BME280;4196;48.926;8.964;2023-02-04T09:53:23;100861.72;;;7.35;100.00
8318;BME280;4196;48.926;8.964;2023-02-04T09:56:10;100866.72;;;7.53;100.00
8318;BME280;4196;48.926;8.964;2023-02-04T09:58:57;100805.91;;;7.13;100.00
8318;BME280;4196;48.926;8.964;2023-02-04T10:01:43;100832.38;;;7.09;100.00
8318;BME280;4196;48.926;8.964;2023-02-04T10:04:29;100851.59;;;7.40;93.66
8318;BME280;4196;48.926;8.964;2023-02-04T10:07:17;100876.63;;;7.42;93.78
8318;BME280;4196;48.926;8.964;2023-02-04T10:10:15;100876.75;;;7.45;95.19
8318;BME280;4196;48.926;8.964;2023-02-04T10:13:02;100863.00;;;7.45;88.36
8318;BME280;4196;48.926;8.964;2023-02-04T10:15:49;100878.03;;;7.57;88.58
8318;BME280;4196;48.926;8.964;2023-02-04T10:18:36;100857.47;;;7.36;88.25
8318;BME280;4196;48.926;8.964;2023-02-04T10:21:28;100865.25;;;7.37;88.99
8318;BME280;4196;48.926;8.964;2023-02-04T10:24:22;100857.47;;;6.92;85.96
8318;BME280;4196;48.926;8.964;2023-02-04T10:27:13;100857.13;;;6.85;87.07
8318;BME280;4196;48.926;8.964;2023-02-04T10:30:03;100863.78;;;7.00;87.92
8318;BME280;4196;48.926;8.964;2023-02-04T10:32:50;100873.69;;;6.91;87.19
8318;BME280;4196;48.926;8.964;2023-02-04T10:35:48;100842.66;;;6.88;86.18
8318;BME280;4196;48.926;8.964;2023-02-04T10:38:35;100847.72;;;6.85;86.11
8318;BME280;4196;48.926;8.964;2023-02-04T10:41:21;100855.13;;;6.98;85.67
8318;BME280;4196;48.926;8.964;2023-02-04T10:44:10;100868.00;;;6.98;85.99
8318;BME280;4196;48.926;8.964;2023-02-04T10:47:01;100854.34;;;6.80;85.01
8318;BME280;4196;48.926;8.964;2023-02-04T10:49:58;100869.34;;;6.89;85.96
8318;BME280;4196;48.926;8.964;2023-02-04T10:52:48;100848.97;;;6.74;86.57
8318;BME280;4196;48.926;8.964;2023-02-04T10:55:36;100865.94;;;6.90;85.92
8318;BME280;4196;48.926;8.964;2023-02-04T10:58:27;100855.75;;;6.93;83.54
8318;BME280;4196;48.926;8.964;2023-02-04T11:01:15;100828.94;;;7.31;80.40
8318;BME280;4196;48.926;8.964;2023-02-04T11:04:01;100850.81;;;7.63;78.03
8318;BME280;4196;48.926;8.964;2023-02-04T11:06:49;100867.88;;;7.84;77.10
8318;BME280;4196;48.926;8.964;2023-02-04T11:09:35;100852.22;;;8.02;74.49
8318;BME280;4196;48.926;8.964;2023-02-04T11:12:44;100859.19;;;8.04;75.45
8318;BME280;4196;48.926;8.964;2023-02-04T11:15:46;100834.19;;;7.79;76.08
8318;BME280;4196;48.926;8.964;2023-02-04T11:18:48;100860.53;;;7.94;70.83
8318;BME280;4196;48.926;8.964;2023-02-04T11:24:24;100796.91;;;7.93;68.66
8318;BME280;4196;48.926;8.964;2023-02-04T11:27:38;100858.03;;;8.20;67.93
8318;BME280;4196;48.926;8.964;2023-02-04T11:30:31;100862.13;;;8.37;69.18
8318;BME280;4196;48.926;8.964;2023-02-04T11:33:22;100867.13;;;8.33;66.03
8318;BME280;4196;48.926;8.964;2023-02-04T11:36:10;100868.91;;;8.11;62.72
8318;BME280;4196;48.926;8.964;2023-02-04T11:39:06;100836.41;;;7.92;64.79
8318;BME280;4196;48.926;8.964;2023-02-04T11:41:53;100864.94;;;8.21;66.34
8318;BME280;4196;48.926;8.964;2023-02-04T11:44:40;100858.84;;;8.41;67.33
8318;BME280;4196;48.926;8.964;2023-02-04T11:47:33;100862.19;;;8.64;67.13
8318;BME280;4196;48.926;8.964;2023-02-04T11:50:32;100864.16;;;8.71;66.64
8318;BME280;4196;48.926;8.964;2023-02-04T11:53:23;100856.38;;;8.70;64.91
8318;BME280;4196;48.926;8.964;2023-02-04T11:56:19;100842.63;;;8.71;66.24
8318;BME280;4196;48.926;8.964;2023-02-04T11:59:09;100828.81;;;8.69;65.25
8318;BME280;4196;48.926;8.964;2023-02-04T12:02:05;100852.25;;;8.75;64.90
8318;BME280;4196;48.926;8.964;2023-02-04T12:04:56;100864.97;;;8.69;64.03
8318;BME280;4196;48.926;8.964;2023-02-04T12:07:43;100840.81;;;8.43;63.96
8318;BME280;4196;48.926;8.964;2023-02-04T12:10:32;100866.25;;;8.10;66.30
8318;BME280;4196;48.926;8.964;2023-02-04T12:13:22;100874.59;;;8.25;64.99
8318;BME280;4196;48.926;8.964;2023-02-04T12:16:09;100822.38;;;8.08;67.68
8318;BME280;4196;48.926;8.964;2023-02-04T12:18:56;100850.25;;;8.42;66.85
8318;BME280;4196;48.926;8.964;2023-02-04T12:21:42;100847.31;;;8.57;65.67
8318;BME280;4196;48.926;8.964;2023-02-04T12:24:29;100828.69;;;8.40;64.84
8318;BME280;4196;48.926;8.964;2023-02-04T12:27:15;100849.22;;;8.37;64.00
8318;BME280;4196;48.926;8.964;2023-02-04T12:30:02;100848.22;;;8.34;67.26
8318;BME280;4196;48.926;8.964;2023-02-04T12:32:48;100847.44;;;8.12;63.85
8318;BME280;4196;48.926;8.964;2023-02-04T12:35:35;100868.47;;;8.23;66.06
8318;BME280;4196;48.926;8.964;2023-02-04T12:38:21;100862.00;;;8.34;64.27
8318;BME280;4196;48.926;8.964;2023-02-04T12:41:08;100818.63;;;8.00;65.83
8318;BME280;4196;48.926;8.964;2023-02-04T12:43:54;100842.84;;;8.04;69.08
8318;BME280;4196;48.926;8.964;2023-02-04T12:46:41;100841.84;;;8.00;70.99
8318;BME280;4196;48.926;8.964;2023-02-04T12:49:27;100847.69;;;7.72;73.04
8318;BME280;4196;48.926;8.964;2023-02-04T12:52:13;100875.56;;;7.82;73.65
8318;BME280;4196;48.926;8.964;2023-02-04T12:55:00;100870.59;;;7.87;73.59
8318;BME280;4196;48.926;8.964;2023-02-04T12:57:46;100869.28;;;7.98;73.21
8318;BME280;4196;48.926;8.964;2023-02-04T13:00:32;100850.13;;;7.91;74.27
8318;BME280;4196;48.926;8.964;2023-02-04T13:03:19;100868.09;;;8.36;71.79
8318;BME280;4196;48.926;8.964;2023-02-04T13:06:05;100833.78;;;8.39;70.71
8318;BME280;4196;48.926;8.964;2023-02-04T13:08:52;100850.38;;;8.97;70.77
8318;BME280;4196;48.926;8.964;2023-02-04T13:11:38;100856.75;;;9.08;63.92
8318;BME280;4196;48.926;8.964;2023-02-04T13:14:24;100828.03;;;9.26;59.71
8318;BME280;4196;48.926;8.964;2023-02-04T13:17:11;100881.69;;;9.90;59.33
8318;BME280;4196;48.926;8.964;2023-02-04T13:19:57;100869.34;;;10.40;60.47
8318;BME280;4196;48.926;8.964;2023-02-04T13:22:44;100841.63;;;10.69;59.37
8318;BME280;4196;48.926;8.964;2023-02-04T13:25:30;100868.28;;;11.00;59.00
8318;BME280;4196;48.926;8.964;2023-02-04T13:28:17;100868.50;;;10.74;56.44
8318;BME280;4196;48.926;8.964;2023-02-04T13:31:04;100860.78;;;9.25;68.58
8318;BME280;4196;48.926;8.964;2023-02-04T13:33:50;100883.34;;;8.78;71.76
8318;BME280;4196;48.926;8.964;2023-02-04T13:36:36;100883.91;;;8.69;74.16
8318;BME280;4196;48.926;8.964;2023-02-04T13:39:23;100845.06;;;7.94;77.27
8318;BME280;4196;48.926;8.964;2023-02-04T13:42:10;100852.84;;;7.72;77.71
8318;BME280;4196;48.926;8.964;2023-02-04T13:44:56;100871.00;;;7.53;79.60
8318;BME280;4196;48.926;8.964;2023-02-04T13:47:43;100896.63;;;7.48;81.08
8318;BME280;4196;48.926;8.964;2023-02-04T13:50:29;100879.59;;;7.10;82.70
8318;BME280;4196;48.926;8.964;2023-02-04T13:53:16;100903.97;;;7.18;84.05
8318;BME280;4196;48.926;8.964;2023-02-04T13:56:03;100875.72;;;6.77;85.12
8318;BME280;4196;48.926;8.964;2023-02-04T13:58:49;100883.25;;;6.73;86.40
8318;BME280;4196;48.926;8.964;2023-02-04T14:01:35;100880.53;;;6.70;86.88
8318;BME280;4196;48.926;8.964;2023-02-04T14:04:21;100911.19;;;6.85;87.83
8318;BME280;4196;48.926;8.964;2023-02-04T14:07:09;100887.59;;;6.74;87.82
8318;BME280;4196;48.926;8.964;2023-02-04T14:09:55;100893.53;;;6.73;86.52
8318;BME280;4196;48.926;8.964;2023-02-04T14:12:41;100902.50;;;6.62;87.51
8318;BME280;4196;48.926;8.964;2023-02-04T14:15:28;100907.31;;;6.54;86.70
8318;BME280;4196;48.926;8.964;2023-02-04T14:18:14;100879.91;;;6.35;88.38
8318;BME280;4196;48.926;8.964;2023-02-04T14:21:03;100881.28;;;6.27;88.33
8318;BME280;4196;48.926;8.964;2023-02-04T14:23:49;100891.06;;;6.36;87.40
8318;BME280;4196;48.926;8.964;2023-02-04T14:26:36;100914.44;;;6.40;88.59
8318;BME280;4196;48.926;8.964;2023-02-04T14:29:22;100888.66;;;6.19;86.94
8318;BME280;4196;48.926;8.964;2023-02-04T14:32:08;100872.59;;;6.05;86.37
8318;BME280;4196;48.926;8.964;2023-02-04T14:34:55;100901.03;;;6.09;86.58
8318;BME280;4196;48.926;8.964;2023-02-04T14:37:42;100882.34;;;5.93;85.91
8318;BME280;4196;48.926;8.964;2023-02-04T14:40:28;100922.97;;;6.20;85.47
8318;BME280;4196;48.926;8.964;2023-02-04T14:43:15;100917.56;;;6.52;84.57
8318;BME280;4196;48.926;8.964;2023-02-04T14:46:03;100902.66;;;6.45;81.76
8318;BME280;4196;48.926;8.964;2023-02-04T14:48:50;100920.84;;;6.69;78.62
8318;BME280;4196;48.926;8.964;2023-02-04T14:51:37;100898.13;;;6.80;75.92
8318;BME280;4196;48.926;8.964;2023-02-04T14:54:23;100927.75;;;7.11;78.18
8318;BME280;4196;48.926;8.964;2023-02-04T14:57:10;100872.44;;;7.02;78.01
8318;BME280;4196;48.926;8.964;2023-02-04T14:59:57;100927.16;;;7.39;79.39
8318;BME280;4196;48.926;8.964;2023-02-04T15:02:43;100884.63;;;7.07;74.59
8318;BME280;4196;48.926;8.964;2023-02-04T15:05:30;100891.03;;;7.16;72.20
8318;BME280;4196;48.926;8.964;2023-02-04T15:08:16;100863.22;;;7.08;75.34